sensor_id;sensor_type;location;lat;lon;timestamp;P1;durP1;ratioP1;P2;durP2;ratioP2
80409;SDS011;69746;45.596;10.154;2023-06-10T00:02:21;6.38;;;4.90;;
80409;SDS011;69746;45.596;10.154;2023-06-10T00:04:47;6.28;;;4.75;;
80409;SDS011;69746;45.596;10.154;2023-06-10T00:07:13;6.43;;;5.00;;
80409;SDS011;69746;45.596;10.154;2023-06-10T00:09:39;6.18;;;4.78;;
80409;SDS011;69746;45.596;10.154;2023-06-10T00:12:06;6.40;;;4.68;;
80409;SDS011;69746;45.596;10.154;2023-06-10T00:16:59;5.55;;;4.70;;
80409;SDS011;69746;45.596;10.154;2023-06-10T00:19:25;5.55;;;4.70;;
80409;SDS011;69746;45.596;10.154;2023-06-10T00:21:51;6.68;;;4.63;;
80409;SDS011;69746;45.596;10.154;2023-06-10T00:24:17;6.22;;;4.95;;
80409;SDS011;69746;45.596;10.154;2023-06-10T00:26:44;5.88;;;4.38;;
80409;SDS011;69746;45.596;10.154;2023-06-10T00:29:10;7.47;;;4.75;;
80409;SDS011;69746;45.596;10.154;2023-06-10T00:31:38;5.10;;;4.60;;
80409;SDS011;69746;45.596;10.154;2023-06-10T00:34:04;5.20;;;4.70;;
80409;SDS011;69746;45.596;10.154;2023-06-10T00:36:30;5.93;;;4.95;;
80409;SDS011;69746;45.596;10.154;2023-06-10T00:38:59;6.65;;;4.65;;
80409;SDS011;69746;45.596;10.154;2023-06-10T00:41:25;7.30;;;4.72;;
80409;SDS011;69746;45.596;10.154;2023-06-10T00:43:53;5.45;;;4.38;;
80409;SDS011;69746;45.596;10.154;2023-06-10T00:46:19;6.28;;;4.65;;
80409;SDS011;69746;45.596;10.154;2023-06-10T00:48:47;5.57;;;4.97;;
80409;SDS011;69746;45.596;10.154;2023-06-10T00:51:13;5.80;;;4.75;;
80409;SDS011;69746;45.596;10.154;2023-06-10T00:53:42;6.80;;;4.60;;
80409;SDS011;69746;45.596;10.154;2023-06-10T00:56:08;5.75;;;4.95;;
80409;SDS011;69746;45.596;10.154;2023-06-10T00:58:35;5.60;;;4.88;;
80409;SDS011;69746;45.596;10.154;2023-06-10T01:01:01;5.13;;;4.57;;
80409;SDS011;69746;45.596;10.154;2023-06-10T01:03:27;5.68;;;4.97;;
80409;SDS011;69746;45.596;10.154;2023-06-10T01:08:50;5.55;;;4.65;;
80409;SDS011;69746;45.596;10.154;2023-06-10T01:11:28;5.43;;;4.40;;
80409;SDS011;69746;45.596;10.154;2023-06-10T01:14:01;5.70;;;4.47;;
80409;SDS011;69746;45.596;10.154;2023-06-10T01:16:30;5.45;;;4.53;;
80409;SDS011;69746;45.596;10.154;2023-06-10T01:18:56;4.72;;;4.22;;
80409;SDS011;69746;45.596;10.154;2023-06-10T01:21:23;5.90;;;4.90;;
80409;SDS011;69746;45.596;10.154;2023-06-10T01:23:50;5.38;;;4.32;;
80409;SDS011;69746;45.596;10.154;2023-06-10T01:26:19;5.03;;;4.47;;
80409;SDS011;69746;45.596;10.154;2023-06-10T01:28:57;6.00;;;4.90;;
80409;SDS011;69746;45.596;10.154;2023-06-10T01:34:10;5.22;;;4.45;;
80409;SDS011;69746;45.596;10.154;2023-06-10T01:36:39;7.05;;;4.90;;
80409;SDS011;69746;45.596;10.154;2023-06-10T01:39:07;5.35;;;4.65;;
80409;SDS011;69746;45.596;10.154;2023-06-10T01:41:35;5.57;;;4.35;;
80409;SDS011;69746;45.596;10.154;2023-06-10T01:44:05;5.65;;;4.40;;
80409;SDS011;69746;45.596;10.154;2023-06-10T01:46:31;6.20;;;4.47;;
80409;SDS011;69746;45.596;10.154;2023-06-10T01:48:57;5.18;;;4.20;;
80409;SDS011;69746;45.596;10.154;2023-06-10T01:51:23;5.60;;;4.68;;
80409;SDS011;69746;45.596;10.154;2023-06-10T01:53:49;5.07;;;4.43;;
80409;SDS011;69746;45.596;10.154;2023-06-10T01:56:15;5.18;;;4.15;;
80409;SDS011;69746;45.596;10.154;2023-06-10T01:58:44;4.93;;;4.22;;
80409;SDS011;69746;45.596;10.154;2023-06-10T02:01:14;4.80;;;4.30;;
80409;SDS011;69746;45.596;10.154;2023-06-10T02:03:40;4.40;;;4.00;;
80409;SDS011;69746;45.596;10.154;2023-06-10T02:06:06;4.70;;;4.03;;
80409;SDS011;69746;45.596;10.154;2023-06-10T02:08:32;5.32;;;4.15;;
80409;SDS011;69746;45.596;10.154;2023-06-10T02:10:58;5.32;;;4.60;;
80409;SDS011;69746;45.596;10.154;2023-06-10T02:13:24;4.47;;;4.07;;
80409;SDS011;69746;45.596;10.154;2023-06-10T02:15:50;4.65;;;4.15;;
80409;SDS011;69746;45.596;10.154;2023-06-10T02:18:15;4.70;;;4.18;;
80409;SDS011;69746;45.596;10.154;2023-06-10T02:20:45;5.00;;;4.28;;
80409;SDS011;69746;45.596;10.154;2023-06-10T02:23:11;4.82;;;4.28;;
80409;SDS011;69746;45.596;10.154;2023-06-10T02:25:38;5.00;;;4.50;;
80409;SDS011;69746;45.596;10.154;2023-06-10T02:28:04;5.50;;;4.47;;
80409;SDS011;69746;45.596;10.154;2023-06-10T02:30:30;5.20;;;4.30;;
80409;SDS011;69746;45.596;10.154;2023-06-10T02:32:56;5.38;;;4.40;;
80409;SDS011;69746;45.596;10.154;2023-06-10T02:35:22;4.65;;;4.13;;
80409;SDS011;69746;45.596;10.154;2023-06-10T02:37:49;4.70;;;3.88;;
80409;SDS011;69746;45.596;10.154;2023-06-10T02:40:16;4.30;;;3.90;;
80409;SDS011;69746;45.596;10.154;2023-06-10T02:42:41;5.07;;;3.97;;
80409;SDS011;69746;45.596;10.154;2023-06-10T02:45:07;4.70;;;4.13;;
80409;SDS011;69746;45.596;10.154;2023-06-10T02:47:33;5.13;;;4.40;;
80409;SDS011;69746;45.596;10.154;2023-06-10T02:49:59;5.00;;;4.40;;
80409;SDS011;69746;45.596;10.154;2023-06-10T02:52:25;4.80;;;4.20;;
80409;SDS011;69746;45.596;10.154;2023-06-10T02:54:51;4.68;;;4.07;;
80409;SDS011;69746;45.596;10.154;2023-06-10T02:57:17;7.22;;;4.05;;
80409;SDS011;69746;45.596;10.154;2023-06-10T02:59:42;4.75;;;3.80;;
80409;SDS011;69746;45.596;10.154;2023-06-10T03:02:08;5.72;;;4.35;;
80409;SDS011;69746;45.596;10.154;2023-06-10T03:04:34;5.35;;;4.40;;
80409;SDS011;69746;45.596;10.154;2023-06-10T03:07:02;4.40;;;4.00;;
80409;SDS011;69746;45.596;10.154;2023-06-10T03:09:32;4.78;;;4.28;;
80409;SDS011;69746;45.596;10.154;2023-06-10T03:11:58;4.47;;;4.07;;
80409;SDS011;69746;45.596;10.154;2023-06-10T03:14:25;4.70;;;4.20;;
80409;SDS011;69746;45.596;10.154;2023-06-10T03:16:51;4.63;;;4.13;;
80409;SDS011;69746;45.596;10.154;2023-06-10T03:19:17;4.28;;;3.88;;
80409;SDS011;69746;45.596;10.154;2023-06-10T03:21:43;4.25;;;3.85;;
80409;SDS011;69746;45.596;10.154;2023-06-10T03:24:10;4.78;;;3.80;;
80409;SDS011;69746;45.596;10.154;2023-06-10T03:26:36;4.38;;;3.83;;
80409;SDS011;69746;45.596;10.154;2023-06-10T03:29:02;4.22;;;3.80;;
80409;SDS011;69746;45.596;10.154;2023-06-10T03:31:28;4.63;;;3.65;;
80409;SDS011;69746;45.596;10.154;2023-06-10T03:33:54;4.05;;;3.65;;
80409;SDS011;69746;45.596;10.154;2023-06-10T03:36:20;4.55;;;3.92;;
80409;SDS011;69746;45.596;10.154;2023-06-10T03:38:46;4.53;;;4.00;;
80409;SDS011;69746;45.596;10.154;2023-06-10T03:41:12;4.60;;;3.90;;
80409;SDS011;69746;45.596;10.154;2023-06-10T03:43:38;4.57;;;4.00;;
80409;SDS011;69746;45.596;10.154;2023-06-10T03:46:05;4.40;;;3.90;;
80409;SDS011;69746;45.596;10.154;2023-06-10T03:48:31;4.50;;;4.07;;
80409;SDS011;69746;45.596;10.154;2023-06-10T03:50:58;4.13;;;3.72;;
80409;SDS011;69746;45.596;10.154;2023-06-10T03:53:23;4.82;;;3.90;;
80409;SDS011;69746;45.596;10.154;2023-06-10T03:55:49;5.15;;;3.75;;
80409;SDS011;69746;45.596;10.154;2023-06-10T03:58:15;4.20;;;3.67;;
80409;SDS011;69746;45.596;10.154;2023-06-10T04:03:10;3.92;;;3.53;;
80409;SDS011;69746;45.596;10.154;2023-06-10T04:05:39;3.83;;;3.42;;
80409;SDS011;69746;45.596;10.154;2023-06-10T04:08:07;4.30;;;3.85;;
80409;SDS011;69746;45.596;10.154;2023-06-10T04:10:33;4.43;;;3.95;;
80409;SDS011;69746;45.596;10.154;2023-06-10T04:12:59;4.40;;;3.83;;
80409;SDS011;69746;45.596;10.154;2023-06-10T04:15:25;4.00;;;3.60;;
80409;SDS011;69746;45.596;10.154;2023-06-10T04:17:51;4.07;;;3.67;;
80409;SDS011;69746;45.596;10.154;2023-06-10T04:20:17;4.65;;;3.67;;
80409;SDS011;69746;45.596;10.154;2023-06-10T04:22:43;6.72;;;3.88;;
80409;SDS011;69746;45.596;10.154;2023-06-10T04:25:09;4.45;;;3.55;;
80409;SDS011;69746;45.596;10.154;2023-06-10T04:27:35;4.20;;;3.80;;
80409;SDS011;69746;45.596;10.154;2023-06-10T04:30:01;4.60;;;4.05;;
80409;SDS011;69746;45.596;10.154;2023-06-10T04:32:29;4.25;;;3.83;;
80409;SDS011;69746;45.596;10.154;2023-06-10T04:34:55;4.15;;;3.75;;
80409;SDS011;69746;45.596;10.154;2023-06-10T04:37:21;3.58;;;3.22;;
80409;SDS011;69746;45.596;10.154;2023-06-10T04:39:50;4.20;;;3.72;;
80409;SDS011;69746;45.596;10.154;2023-06-10T04:42:16;4.25;;;3.40;;
80409;SDS011;69746;45.596;10.154;2023-06-10T04:44:44;4.05;;;3.65;;
80409;SDS011;69746;45.596;10.154;2023-06-10T04:47:10;4.03;;;3.45;;
80409;SDS011;69746;45.596;10.154;2023-06-10T04:49:36;4.45;;;3.90;;
80409;SDS011;69746;45.596;10.154;2023-06-10T04:52:02;5.05;;;4.07;;
80409;SDS011;69746;45.596;10.154;2023-06-10T04:56:56;4.07;;;3.67;;
80409;SDS011;69746;45.596;10.154;2023-06-10T04:59:24;5.25;;;3.95;;
80409;SDS011;69746;45.596;10.154;2023-06-10T05:01:52;9.77;;;4.30;;
80409;SDS011;69746;45.596;10.154;2023-06-10T05:04:18;5.78;;;4.00;;
80409;SDS011;69746;45.596;10.154;2023-06-10T05:06:44;4.63;;;3.72;;
80409;SDS011;69746;45.596;10.154;2023-06-10T05:09:10;4.78;;;3.80;;
80409;SDS011;69746;45.596;10.154;2023-06-10T05:11:36;4.78;;;3.60;;
80409;SDS011;69746;45.596;10.154;2023-06-10T05:14:01;5.72;;;4.10;;
80409;SDS011;69746;45.596;10.154;2023-06-10T05:16:27;5.93;;;4.53;;
80409;SDS011;69746;45.596;10.154;2023-06-10T05:18:53;5.20;;;4.43;;
80409;SDS011;69746;45.596;10.154;2023-06-10T05:21:19;4.60;;;4.03;;
80409;SDS011;69746;45.596;10.154;2023-06-10T05:23:48;5.38;;;4.28;;
80409;SDS011;69746;45.596;10.154;2023-06-10T05:26:15;4.50;;;3.90;;
80409;SDS011;69746;45.596;10.154;2023-06-10T05:28:41;6.25;;;4.07;;
80409;SDS011;69746;45.596;10.154;2023-06-10T05:31:08;5.13;;;3.97;;
80409;SDS011;69746;45.596;10.154;2023-06-10T05:33:34;6.18;;;4.13;;
80409;SDS011;69746;45.596;10.154;2023-06-10T05:35:59;4.50;;;3.63;;
80409;SDS011;69746;45.596;10.154;2023-06-10T05:38:25;9.07;;;3.72;;
80409;SDS011;69746;45.596;10.154;2023-06-10T05:40:51;5.15;;;4.05;;
80409;SDS011;69746;45.596;10.154;2023-06-10T05:43:17;5.28;;;3.60;;
80409;SDS011;69746;45.596;10.154;2023-06-10T05:45:43;4.78;;;3.97;;
80409;SDS011;69746;45.596;10.154;2023-06-10T05:48:12;4.38;;;3.45;;
80409;SDS011;69746;45.596;10.154;2023-06-10T05:50:41;5.40;;;3.95;;
80409;SDS011;69746;45.596;10.154;2023-06-10T05:53:08;5.20;;;3.70;;
80409;SDS011;69746;45.596;10.154;2023-06-10T05:55:42;4.80;;;3.75;;
80409;SDS011;69746;45.596;10.154;2023-06-10T05:58:11;5.95;;;3.88;;
80409;SDS011;69746;45.596;10.154;2023-06-10T06:00:40;4.35;;;3.60;;
80409;SDS011;69746;45.596;10.154;2023-06-10T06:03:08;4.65;;;3.72;;
80409;SDS011;69746;45.596;10.154;2023-06-10T06:05:34;7.53;;;3.72;;
80409;SDS011;69746;45.596;10.154;2023-06-10T06:08:01;4.38;;;3.83;;
80409;SDS011;69746;45.596;10.154;2023-06-10T06:10:27;4.55;;;3.72;;
80409;SDS011;69746;45.596;10.154;2023-06-10T06:12:53;5.18;;;3.70;;
80409;SDS011;69746;45.596;10.154;2023-06-10T06:15:19;5.38;;;3.60;;
80409;SDS011;69746;45.596;10.154;2023-06-10T06:17:45;5.38;;;4.00;;
80409;SDS011;69746;45.596;10.154;2023-06-10T06:20:11;6.28;;;3.88;;
80409;SDS011;69746;45.596;10.154;2023-06-10T06:22:38;5.55;;;3.78;;
80409;SDS011;69746;45.596;10.154;2023-06-10T06:25:04;5.13;;;4.00;;
80409;SDS011;69746;45.596;10.154;2023-06-10T06:27:31;5.35;;;3.47;;
80409;SDS011;69746;45.596;10.154;2023-06-10T06:29:57;6.72;;;4.10;;
80409;SDS011;69746;45.596;10.154;2023-06-10T06:32:22;7.90;;;4.68;;
80409;SDS011;69746;45.596;10.154;2023-06-10T06:37:25;8.68;;;5.78;;
80409;SDS011;69746;45.596;10.154;2023-06-10T06:39:51;7.65;;;5.78;;
80409;SDS011;69746;45.596;10.154;2023-06-10T06:42:17;7.47;;;6.13;;
80409;SDS011;69746;45.596;10.154;2023-06-10T06:44:44;10.02;;;5.65;;
80409;SDS011;69746;45.596;10.154;2023-06-10T06:47:13;8.38;;;5.60;;
80409;SDS011;69746;45.596;10.154;2023-06-10T06:49:39;10.38;;;5.63;;
80409;SDS011;69746;45.596;10.154;2023-06-10T06:52:05;7.80;;;6.15;;
80409;SDS011;69746;45.596;10.154;2023-06-10T06:54:31;9.45;;;6.07;;
80409;SDS011;69746;45.596;10.154;2023-06-10T06:56:57;8.82;;;6.72;;
80409;SDS011;69746;45.596;10.154;2023-06-10T06:59:23;10.18;;;6.40;;
80409;SDS011;69746;45.596;10.154;2023-06-10T07:01:51;9.00;;;5.85;;
80409;SDS011;69746;45.596;10.154;2023-06-10T07:04:21;8.52;;;5.85;;
80409;SDS011;69746;45.596;10.154;2023-06-10T07:06:50;9.25;;;6.25;;
80409;SDS011;69746;45.596;10.154;2023-06-10T07:09:16;8.55;;;5.93;;
80409;SDS011;69746;45.596;10.154;2023-06-10T07:11:42;10.32;;;6.70;;
80409;SDS011;69746;45.596;10.154;2023-06-10T07:14:08;10.68;;;7.15;;
80409;SDS011;69746;45.596;10.154;2023-06-10T07:16:34;10.35;;;7.03;;
80409;SDS011;69746;45.596;10.154;2023-06-10T07:19:00;10.45;;;6.00;;
80409;SDS011;69746;45.596;10.154;2023-06-10T07:21:26;9.35;;;6.53;;
80409;SDS011;69746;45.596;10.154;2023-06-10T07:23:54;9.18;;;7.05;;
80409;SDS011;69746;45.596;10.154;2023-06-10T07:26:21;8.40;;;7.28;;
80409;SDS011;69746;45.596;10.154;2023-06-10T07:28:50;8.52;;;6.15;;
80409;SDS011;69746;45.596;10.154;2023-06-10T07:31:16;11.25;;;7.57;;
80409;SDS011;69746;45.596;10.154;2023-06-10T07:33:42;11.52;;;7.25;;
80409;SDS011;69746;45.596;10.154;2023-06-10T07:36:09;10.45;;;7.30;;
80409;SDS011;69746;45.596;10.154;2023-06-10T07:38:35;8.98;;;6.63;;
80409;SDS011;69746;45.596;10.154;2023-06-10T07:41:01;8.80;;;7.18;;
80409;SDS011;69746;45.596;10.154;2023-06-10T07:43:27;11.02;;;7.35;;
80409;SDS011;69746;45.596;10.154;2023-06-10T07:45:53;9.05;;;7.15;;
80409;SDS011;69746;45.596;10.154;2023-06-10T07:48:19;8.65;;;6.50;;
80409;SDS011;69746;45.596;10.154;2023-06-10T07:50:44;10.93;;;6.95;;
80409;SDS011;69746;45.596;10.154;2023-06-10T07:53:11;9.57;;;6.55;;
80409;SDS011;69746;45.596;10.154;2023-06-10T07:55:39;8.85;;;6.25;;
80409;SDS011;69746;45.596;10.154;2023-06-10T07:58:05;11.27;;;7.70;;
80409;SDS011;69746;45.596;10.154;2023-06-10T08:00:31;10.23;;;7.28;;
80409;SDS011;69746;45.596;10.154;2023-06-10T08:02:56;11.25;;;7.57;;
80409;SDS011;69746;45.596;10.154;2023-06-10T08:05:22;10.10;;;6.85;;
80409;SDS011;69746;45.596;10.154;2023-06-10T08:07:48;8.38;;;6.05;;
80409;SDS011;69746;45.596;10.154;2023-06-10T08:10:15;9.98;;;7.35;;
80409;SDS011;69746;45.596;10.154;2023-06-10T08:12:41;10.25;;;7.32;;
80409;SDS011;69746;45.596;10.154;2023-06-10T08:15:08;10.48;;;7.18;;
80409;SDS011;69746;45.596;10.154;2023-06-10T08:17:37;9.63;;;6.70;;
80409;SDS011;69746;45.596;10.154;2023-06-10T08:20:04;7.20;;;5.75;;
80409;SDS011;69746;45.596;10.154;2023-06-10T08:22:32;9.02;;;6.55;;
80409;SDS011;69746;45.596;10.154;2023-06-10T08:24:58;9.15;;;6.43;;
80409;SDS011;69746;45.596;10.154;2023-06-10T08:27:24;9.65;;;6.75;;
80409;SDS011;69746;45.596;10.154;2023-06-10T08:29:50;7.85;;;5.93;;
80409;SDS011;69746;45.596;10.154;2023-06-10T08:32:15;8.10;;;6.10;;
80409;SDS011;69746;45.596;10.154;2023-06-10T08:34:41;8.75;;;6.20;;
80409;SDS011;69746;45.596;10.154;2023-06-10T08:37:07;10.10;;;6.05;;
80409;SDS011;69746;45.596;10.154;2023-06-10T08:39:34;8.80;;;6.13;;
80409;SDS011;69746;45.596;10.154;2023-06-10T08:44:32;8.75;;;5.28;;
80409;SDS011;69746;45.596;10.154;2023-06-10T08:47:06;8.95;;;6.45;;
80409;SDS011;69746;45.596;10.154;2023-06-10T08:49:41;7.57;;;6.15;;
80409;SDS011;69746;45.596;10.154;2023-06-10T08:52:14;7.95;;;6.18;;
80409;SDS011;69746;45.596;10.154;2023-06-10T08:54:43;6.55;;;5.75;;
80409;SDS011;69746;45.596;10.154;2023-06-10T08:57:15;7.55;;;5.65;;
80409;SDS011;69746;45.596;10.154;2023-06-10T08:59:45;8.98;;;5.75;;
80409;SDS011;69746;45.596;10.154;2023-06-10T09:02:13;9.27;;;5.82;;
80409;SDS011;69746;45.596;10.154;2023-06-10T09:04:43;9.63;;;5.80;;
80409;SDS011;69746;45.596;10.154;2023-06-10T09:07:10;7.60;;;5.57;;
80409;SDS011;69746;45.596;10.154;2023-06-10T09:09:36;8.40;;;5.43;;
80409;SDS011;69746;45.596;10.154;2023-06-10T09:12:03;7.60;;;5.25;;
80409;SDS011;69746;45.596;10.154;2023-06-10T09:14:30;8.10;;;5.03;;
80409;SDS011;69746;45.596;10.154;2023-06-10T09:16:55;7.65;;;5.05;;
80409;SDS011;69746;45.596;10.154;2023-06-10T09:19:25;5.82;;;4.95;;
80409;SDS011;69746;45.596;10.154;2023-06-10T09:21:53;7.38;;;4.85;;
80409;SDS011;69746;45.596;10.154;2023-06-10T09:24:23;9.95;;;5.65;;
80409;SDS011;69746;45.596;10.154;2023-06-10T09:26:49;6.03;;;4.78;;
80409;SDS011;69746;45.596;10.154;2023-06-10T09:29:16;7.45;;;5.53;;
80409;SDS011;69746;45.596;10.154;2023-06-10T09:31:43;7.93;;;5.78;;
80409;SDS011;69746;45.596;10.154;2023-06-10T09:34:10;7.68;;;5.22;;
80409;SDS011;69746;45.596;10.154;2023-06-10T09:36:38;7.20;;;4.72;;
80409;SDS011;69746;45.596;10.154;2023-06-10T09:41:43;7.63;;;5.43;;
80409;SDS011;69746;45.596;10.154;2023-06-10T09:44:17;7.88;;;5.05;;
80409;SDS011;69746;45.596;10.154;2023-06-10T09:46:45;7.45;;;5.15;;
80409;SDS011;69746;45.596;10.154;2023-06-10T09:49:12;7.30;;;4.93;;
80409;SDS011;69746;45.596;10.154;2023-06-10T09:51:48;7.18;;;5.32;;
80409;SDS011;69746;45.596;10.154;2023-06-10T09:54:16;6.70;;;4.25;;
80409;SDS011;69746;45.596;10.154;2023-06-10T09:56:42;7.90;;;4.38;;
80409;SDS011;69746;45.596;10.154;2023-06-10T09:59:08;5.82;;;4.53;;
80409;SDS011;69746;45.596;10.154;2023-06-10T10:01:34;5.07;;;4.03;;
80409;SDS011;69746;45.596;10.154;2023-06-10T10:04:00;6.18;;;4.30;;
80409;SDS011;69746;45.596;10.154;2023-06-10T10:08:56;6.60;;;4.10;;
80409;SDS011;69746;45.596;10.154;2023-06-10T10:11:23;5.55;;;4.10;;
80409;SDS011;69746;45.596;10.154;2023-06-10T10:13:51;6.25;;;4.00;;
80409;SDS011;69746;45.596;10.154;2023-06-10T10:16:23;5.80;;;4.03;;
80409;SDS011;69746;45.596;10.154;2023-06-10T10:19:06;5.47;;;3.78;;
80409;SDS011;69746;45.596;10.154;2023-06-10T10:21:43;4.82;;;3.85;;
80409;SDS011;69746;45.596;10.154;2023-06-10T10:24:18;5.03;;;3.63;;
80409;SDS011;69746;45.596;10.154;2023-06-10T10:26:49;5.57;;;3.72;;
80409;SDS011;69746;45.596;10.154;2023-06-10T10:29:19;6.28;;;3.95;;
80409;SDS011;69746;45.596;10.154;2023-06-10T10:31:52;6.00;;;3.67;;
80409;SDS011;69746;45.596;10.154;2023-06-10T10:34:27;4.80;;;3.53;;
80409;SDS011;69746;45.596;10.154;2023-06-10T10:37:01;5.93;;;3.50;;
80409;SDS011;69746;45.596;10.154;2023-06-10T10:39:28;4.78;;;3.10;;
80409;SDS011;69746;45.596;10.154;2023-06-10T10:41:55;5.03;;;3.03;;
80409;SDS011;69746;45.596;10.154;2023-06-10T10:44:22;4.95;;;3.03;;
80409;SDS011;69746;45.596;10.154;2023-06-10T10:46:50;5.03;;;3.10;;
80409;SDS011;69746;45.596;10.154;2023-06-10T10:49:17;5.60;;;3.10;;
80409;SDS011;69746;45.596;10.154;2023-06-10T10:51:57;5.40;;;3.35;;
80409;SDS011;69746;45.596;10.154;2023-06-10T10:54:36;5.32;;;3.33;;
80409;SDS011;69746;45.596;10.154;2023-06-10T10:59:58;4.85;;;2.97;;
80409;SDS011;69746;45.596;10.154;2023-06-10T11:02:34;4.97;;;3.25;;
80409;SDS011;69746;45.596;10.154;2023-06-10T11:05:05;5.72;;;3.47;;
80409;SDS011;69746;45.596;10.154;2023-06-10T11:07:33;7.07;;;3.63;;
80409;SDS011;69746;45.596;10.154;2023-06-10T11:10:04;5.68;;;3.30;;
80409;SDS011;69746;45.596;10.154;2023-06-10T11:15:12;4.43;;;3.50;;
80409;SDS011;69746;45.596;10.154;2023-06-10T11:20:45;6.20;;;3.65;;
80409;SDS011;69746;45.596;10.154;2023-06-10T11:23:30;5.32;;;3.63;;
80409;SDS011;69746;45.596;10.154;2023-06-10T11:29:03;6.97;;;4.15;;
80409;SDS011;69746;45.596;10.154;2023-06-10T11:31:31;6.13;;;4.05;;
80409;SDS011;69746;45.596;10.154;2023-06-10T11:33:59;5.60;;;4.03;;
80409;SDS011;69746;45.596;10.154;2023-06-10T11:36:28;5.75;;;4.43;;
80409;SDS011;69746;45.596;10.154;2023-06-10T11:38:59;7.10;;;4.07;;
80409;SDS011;69746;45.596;10.154;2023-06-10T11:41:30;8.57;;;5.03;;
80409;SDS011;69746;45.596;10.154;2023-06-10T11:44:12;8.90;;;4.50;;
80409;SDS011;69746;45.596;10.154;2023-06-10T11:46:42;9.00;;;4.57;;
80409;SDS011;69746;45.596;10.154;2023-06-10T11:49:08;7.55;;;4.90;;
80409;SDS011;69746;45.596;10.154;2023-06-10T11:51:36;8.43;;;5.00;;
80409;SDS011;69746;45.596;10.154;2023-06-10T11:54:04;7.70;;;5.13;;
80409;SDS011;69746;45.596;10.154;2023-06-10T11:56:31;7.80;;;4.97;;
80409;SDS011;69746;45.596;10.154;2023-06-10T11:59:01;7.22;;;5.20;;
80409;SDS011;69746;45.596;10.154;2023-06-10T12:01:31;7.88;;;4.70;;
80409;SDS011;69746;45.596;10.154;2023-06-10T12:03:58;8.98;;;5.38;;
80409;SDS011;69746;45.596;10.154;2023-06-10T12:06:37;9.43;;;5.03;;
80409;SDS011;69746;45.596;10.154;2023-06-10T12:09:24;7.75;;;4.57;;
80409;SDS011;69746;45.596;10.154;2023-06-10T12:11:57;6.43;;;4.78;;
80409;SDS011;69746;45.596;10.154;2023-06-10T12:17:17;8.20;;;4.53;;
80409;SDS011;69746;45.596;10.154;2023-06-10T12:19:42;7.90;;;4.90;;
80409;SDS011;69746;45.596;10.154;2023-06-10T12:22:08;6.93;;;4.65;;
80409;SDS011;69746;45.596;10.154;2023-06-10T12:24:43;6.55;;;4.68;;
80409;SDS011;69746;45.596;10.154;2023-06-10T12:27:13;10.45;;;4.78;;
80409;SDS011;69746;45.596;10.154;2023-06-10T12:29:38;7.72;;;4.90;;
80409;SDS011;69746;45.596;10.154;2023-06-10T12:32:04;9.55;;;4.60;;
80409;SDS011;69746;45.596;10.154;2023-06-10T12:34:35;6.60;;;4.85;;
80409;SDS011;69746;45.596;10.154;2023-06-10T12:37:03;9.38;;;5.13;;
80409;SDS011;69746;45.596;10.154;2023-06-10T12:39:31;7.38;;;4.35;;
80409;SDS011;69746;45.596;10.154;2023-06-10T12:44:28;8.25;;;4.90;;
80409;SDS011;69746;45.596;10.154;2023-06-10T12:46:56;8.55;;;4.68;;
80409;SDS011;69746;45.596;10.154;2023-06-10T12:49:22;8.98;;;5.35;;
80409;SDS011;69746;45.596;10.154;2023-06-10T12:51:49;7.95;;;4.82;;
80409;SDS011;69746;45.596;10.154;2023-06-10T12:54:14;5.90;;;4.40;;
80409;SDS011;69746;45.596;10.154;2023-06-10T12:56:40;6.97;;;4.63;;
80409;SDS011;69746;45.596;10.154;2023-06-10T12:59:06;8.40;;;4.93;;
80409;SDS011;69746;45.596;10.154;2023-06-10T13:01:33;6.00;;;4.55;;
80409;SDS011;69746;45.596;10.154;2023-06-10T13:03:59;6.80;;;4.68;;
80409;SDS011;69746;45.596;10.154;2023-06-10T13:06:26;9.88;;;4.47;;
80409;SDS011;69746;45.596;10.154;2023-06-10T13:08:54;7.35;;;4.65;;
80409;SDS011;69746;45.596;10.154;2023-06-10T13:11:20;8.32;;;5.50;;
80409;SDS011;69746;45.596;10.154;2023-06-10T13:13:46;6.88;;;5.22;;
80409;SDS011;69746;45.596;10.154;2023-06-10T13:16:12;8.55;;;5.00;;
80409;SDS011;69746;45.596;10.154;2023-06-10T13:18:39;7.03;;;4.82;;
80409;SDS011;69746;45.596;10.154;2023-06-10T13:21:05;9.18;;;4.93;;
80409;SDS011;69746;45.596;10.154;2023-06-10T13:23:32;9.25;;;4.60;;
80409;SDS011;69746;45.596;10.154;2023-06-10T13:25:58;7.70;;;4.55;;
80409;SDS011;69746;45.596;10.154;2023-06-10T13:28:24;6.75;;;4.72;;
80409;SDS011;69746;45.596;10.154;2023-06-10T13:30:50;6.78;;;4.32;;
80409;SDS011;69746;45.596;10.154;2023-06-10T13:33:16;6.65;;;4.60;;
80409;SDS011;69746;45.596;10.154;2023-06-10T13:35:42;7.80;;;4.65;;
80409;SDS011;69746;45.596;10.154;2023-06-10T13:38:11;10.15;;;4.85;;
80409;SDS011;69746;45.596;10.154;2023-06-10T13:40:38;7.10;;;4.35;;
80409;SDS011;69746;45.596;10.154;2023-06-10T13:43:04;6.25;;;4.13;;
80409;SDS011;69746;45.596;10.154;2023-06-10T13:45:30;8.20;;;4.72;;
80409;SDS011;69746;45.596;10.154;2023-06-10T13:47:56;7.82;;;4.63;;
80409;SDS011;69746;45.596;10.154;2023-06-10T13:50:22;8.48;;;4.47;;
80409;SDS011;69746;45.596;10.154;2023-06-10T13:52:48;8.57;;;5.03;;
80409;SDS011;69746;45.596;10.154;2023-06-10T13:55:14;11.32;;;6.35;;
80409;SDS011;69746;45.596;10.154;2023-06-10T14:00:08;10.70;;;5.70;;
80409;SDS011;69746;45.596;10.154;2023-06-10T14:05:07;7.00;;;4.85;;
80409;SDS011;69746;45.596;10.154;2023-06-10T14:07:40;7.85;;;5.15;;
80409;SDS011;69746;45.596;10.154;2023-06-10T14:10:06;7.63;;;4.60;;
80409;SDS011;69746;45.596;10.154;2023-06-10T14:12:34;7.45;;;4.82;;
80409;SDS011;69746;45.596;10.154;2023-06-10T14:15:00;10.20;;;5.13;;
80409;SDS011;69746;45.596;10.154;2023-06-10T14:17:26;9.07;;;5.32;;
80409;SDS011;69746;45.596;10.154;2023-06-10T14:19:52;6.43;;;5.13;;
80409;SDS011;69746;45.596;10.154;2023-06-10T14:22:18;8.02;;;5.00;;
80409;SDS011;69746;45.596;10.154;2023-06-10T14:24:44;7.28;;;5.05;;
80409;SDS011;69746;45.596;10.154;2023-06-10T14:27:10;8.23;;;5.35;;
80409;SDS011;69746;45.596;10.154;2023-06-10T14:29:36;9.75;;;5.03;;
80409;SDS011;69746;45.596;10.154;2023-06-10T14:32:02;8.18;;;5.72;;
80409;SDS011;69746;45.596;10.154;2023-06-10T14:34:28;8.48;;;5.03;;
80409;SDS011;69746;45.596;10.154;2023-06-10T14:36:59;9.60;;;5.10;;
80409;SDS011;69746;45.596;10.154;2023-06-10T14:39:26;8.02;;;5.38;;
80409;SDS011;69746;45.596;10.154;2023-06-10T14:41:52;6.70;;;5.28;;
80409;SDS011;69746;45.596;10.154;2023-06-10T14:44:18;8.68;;;5.53;;
80409;SDS011;69746;45.596;10.154;2023-06-10T14:46:45;9.68;;;5.45;;
80409;SDS011;69746;45.596;10.154;2023-06-10T14:49:10;9.18;;;4.80;;
80409;SDS011;69746;45.596;10.154;2023-06-10T14:51:36;9.40;;;5.07;;
80409;SDS011;69746;45.596;10.154;2023-06-10T14:54:02;6.65;;;4.82;;
80409;SDS011;69746;45.596;10.154;2023-06-10T14:56:29;6.65;;;4.88;;
80409;SDS011;69746;45.596;10.154;2023-06-10T14:58:57;7.88;;;4.90;;
80409;SDS011;69746;45.596;10.154;2023-06-10T15:01:23;6.70;;;4.65;;
80409;SDS011;69746;45.596;10.154;2023-06-10T15:03:49;8.38;;;4.70;;
80409;SDS011;69746;45.596;10.154;2023-06-10T15:06:15;8.27;;;4.80;;
80409;SDS011;69746;45.596;10.154;2023-06-10T15:08:47;9.90;;;4.82;;
80409;SDS011;69746;45.596;10.154;2023-06-10T15:11:14;9.63;;;5.07;;
80409;SDS011;69746;45.596;10.154;2023-06-10T15:13:41;10.18;;;5.47;;
80409;SDS011;69746;45.596;10.154;2023-06-10T15:16:09;10.82;;;4.68;;
80409;SDS011;69746;45.596;10.154;2023-06-10T15:18:35;10.80;;;4.43;;
80409;SDS011;69746;45.596;10.154;2023-06-10T15:21:04;7.20;;;4.53;;